DLH249 LIMC-EDDF
Flight info
| Callsign | DLH249 |
|---|---|
| Flight time | 0h 52m |
| Altitude | 32000 |
| Route | PEPAG DCT ABESI N851 UTAVO DCT ROLSA DCT LADOL T163 EMPAX EMPAX5B |
| Aircraft | A346/H-SDE2E3FGHIJ3J4J5M1RWXY/LB1D1 |
Departure
| Time | 2026-05-07 03:31 |
|---|---|
| Airport | Milan Malpensa International Airport (LIMC) |
Arrival
| Time | 2026-05-07 04:23 |
|---|---|
| Airport | Frankfurt Main Airport (EDDF) |
| Time | Latitude | Longitude | Altitude | Speed | Heading |
|---|---|---|---|---|---|
| 2026-05-07 02:40 | 45.62368 | 8.71723 | 745 ft | 0 kts | 349° |
| 2026-05-07 02:59 | 45.62363 | 8.71724 | 749 ft | 0 kts | 349° |
| 2026-05-07 03:21 | 45.62351 | 8.71727 | 745 ft | 4 kts | 341° |
| 2026-05-07 03:21 | 45.62333 | 8.71733 | 747 ft | 4 kts | 358° |
| 2026-05-07 03:22 | 45.62317 | 8.71729 | 745 ft | 4 kts | 38° |
| 2026-05-07 03:22 | 45.62309 | 8.71710 | 745 ft | 3 kts | 77° |
| 2026-05-07 03:22 | 45.62311 | 8.71724 | 745 ft | 4 kts | 77° |
| 2026-05-07 03:22 | 45.62316 | 8.71761 | 746 ft | 4 kts | 78° |
| 2026-05-07 03:23 | 45.62321 | 8.71792 | 746 ft | 0 kts | 79° |
| 2026-05-07 03:25 | 45.62322 | 8.71804 | 745 ft | 3 kts | 79° |
| 2026-05-07 03:25 | 45.62328 | 8.71848 | 748 ft | 6 kts | 79° |
| 2026-05-07 03:25 | 45.62338 | 8.71922 | 746 ft | 9 kts | 79° |
| 2026-05-07 03:26 | 45.62353 | 8.72031 | 749 ft | 13 kts | 79° |
| 2026-05-07 03:26 | 45.62362 | 8.72167 | 747 ft | 15 kts | 104° |
| 2026-05-07 03:26 | 45.62292 | 8.72251 | 746 ft | 15 kts | 167° |
| 2026-05-07 03:26 | 45.62183 | 8.72288 | 747 ft | 18 kts | 167° |
| 2026-05-07 03:27 | 45.62052 | 8.72329 | 747 ft | 21 kts | 170° |
| 2026-05-07 03:27 | 45.61900 | 8.72358 | 748 ft | 23 kts | 172° |
| 2026-05-07 03:27 | 45.61735 | 8.72398 | 750 ft | 25 kts | 169° |
| 2026-05-07 03:27 | 45.61556 | 8.72449 | 750 ft | 27 kts | 169° |
| 2026-05-07 03:28 | 45.61367 | 8.72502 | 747 ft | 29 kts | 169° |
| 2026-05-07 03:28 | 45.61169 | 8.72555 | 750 ft | 25 kts | 167° |
| 2026-05-07 03:28 | 45.61089 | 8.72739 | 750 ft | 24 kts | 84° |
| 2026-05-07 03:28 | 45.61128 | 8.72983 | 748 ft | 26 kts | 70° |
| 2026-05-07 03:29 | 45.61270 | 8.73095 | 748 ft | 26 kts | 336° |
| 2026-05-07 03:29 | 45.61387 | 8.73064 | 745 ft | 17 kts | 28° |
| 2026-05-07 03:29 | 45.61499 | 8.73152 | 747 ft | 20 kts | 28° |
| 2026-05-07 03:29 | 45.61615 | 8.73279 | 746 ft | 22 kts | 63° |
| 2026-05-07 03:30 | 45.61610 | 8.73505 | 747 ft | 24 kts | 109° |
| 2026-05-07 03:30 | 45.61606 | 8.73726 | 744 ft | 17 kts | 47° |
| 2026-05-07 03:30 | 45.61693 | 8.73717 | 746 ft | 14 kts | 346° |
| 2026-05-07 03:30 | 45.61871 | 8.73662 | 748 ft | 56 kts | 349° |
| 2026-05-07 03:31 | 45.62484 | 8.73496 | 747 ft | 120 kts | 349° |
| 2026-05-07 03:31 | 45.63486 | 8.73220 | 796 ft | 166 kts | 349° |
| 2026-05-07 03:31 | 45.64665 | 8.72947 | 1301 ft | 173 kts | 357° |
| 2026-05-07 03:31 | 45.65776 | 8.73437 | 2009 ft | 172 kts | 32° |
| 2026-05-07 03:32 | 45.66710 | 8.74410 | 2822 ft | 167 kts | 39° |
| 2026-05-07 03:32 | 45.67672 | 8.75494 | 3289 ft | 183 kts | 39° |
| 2026-05-07 03:32 | 45.68714 | 8.76645 | 3707 ft | 200 kts | 38° |
| 2026-05-07 03:32 | 45.69884 | 8.77896 | 4191 ft | 218 kts | 37° |
| 2026-05-07 03:33 | 45.71164 | 8.79234 | 4715 ft | 236 kts | 36° |
| 2026-05-07 03:33 | 45.72528 | 8.80642 | 5243 ft | 254 kts | 36° |
| 2026-05-07 03:33 | 45.74015 | 8.82168 | 5840 ft | 269 kts | 36° |
| 2026-05-07 03:33 | 45.75554 | 8.83743 | 6705 ft | 274 kts | 35° |
| 2026-05-07 03:34 | 45.77114 | 8.85339 | 7604 ft | 277 kts | 35° |
| 2026-05-07 03:34 | 45.78832 | 8.87093 | 8587 ft | 283 kts | 35° |
| 2026-05-07 03:34 | 45.80327 | 8.88621 | 9427 ft | 287 kts | 34° |
| 2026-05-07 03:34 | 45.81951 | 8.90280 | 10313 ft | 293 kts | 34° |
| 2026-05-07 03:35 | 45.83648 | 8.92010 | 10961 ft | 308 kts | 35° |
| 2026-05-07 03:35 | 45.85460 | 8.93862 | 11500 ft | 327 kts | 35° |
| 2026-05-07 03:35 | 45.87377 | 8.95827 | 12023 ft | 346 kts | 34° |
| 2026-05-07 03:35 | 45.89360 | 8.97861 | 12517 ft | 365 kts | 34° |
| 2026-05-07 03:36 | 45.91475 | 9.00033 | 12961 ft | 384 kts | 34° |
| 2026-05-07 03:36 | 45.93692 | 9.02313 | 13551 ft | 396 kts | 34° |
| 2026-05-07 03:36 | 45.95971 | 9.04613 | 14350 ft | 401 kts | 31° |
| 2026-05-07 03:36 | 45.98486 | 9.06216 | 15120 ft | 404 kts | 13° |
| 2026-05-07 03:37 | 46.01257 | 9.06736 | 15942 ft | 405 kts | 357° |
| 2026-05-07 03:37 | 46.04040 | 9.06377 | 16789 ft | 406 kts | 351° |
| 2026-05-07 03:37 | 46.06878 | 9.05854 | 17575 ft | 412 kts | 350° |
| 2026-05-07 03:37 | 46.09745 | 9.05326 | 18343 ft | 418 kts | 350° |
| 2026-05-07 03:38 | 46.12652 | 9.04818 | 18994 ft | 423 kts | 351° |
| 2026-05-07 03:38 | 46.15595 | 9.04325 | 19671 ft | 428 kts | 351° |
| 2026-05-07 03:38 | 46.18535 | 9.03886 | 20344 ft | 432 kts | 352° |
| 2026-05-07 03:38 | 46.21571 | 9.03484 | 21033 ft | 437 kts | 352° |
| 2026-05-07 03:39 | 46.24616 | 9.03091 | 21754 ft | 441 kts | 352° |
| 2026-05-07 03:39 | 46.27690 | 9.02691 | 22426 ft | 445 kts | 352° |
| 2026-05-07 03:39 | 46.30762 | 9.02286 | 23059 ft | 449 kts | 352° |
| 2026-05-07 03:39 | 46.33894 | 9.01870 | 23680 ft | 454 kts | 352° |
| 2026-05-07 03:40 | 46.37065 | 9.01447 | 24207 ft | 458 kts | 352° |
| 2026-05-07 03:40 | 46.40262 | 9.01017 | 24717 ft | 463 kts | 352° |
| 2026-05-07 03:40 | 46.43491 | 9.00582 | 25222 ft | 468 kts | 352° |
| 2026-05-07 03:40 | 46.46757 | 9.00140 | 25740 ft | 473 kts | 352° |
| 2026-05-07 03:41 | 46.50049 | 8.99695 | 26283 ft | 477 kts | 351° |
| 2026-05-07 03:41 | 46.53344 | 8.99249 | 26731 ft | 483 kts | 351° |
| 2026-05-07 03:41 | 46.56713 | 8.98793 | 27218 ft | 487 kts | 351° |
| 2026-05-07 03:41 | 46.60110 | 8.98334 | 27769 ft | 490 kts | 351° |
| 2026-05-07 03:42 | 46.63517 | 8.97874 | 28482 ft | 489 kts | 351° |
| 2026-05-07 03:42 | 46.66906 | 8.97417 | 29330 ft | 487 kts | 351° |
| 2026-05-07 03:42 | 46.70288 | 8.96960 | 30077 ft | 487 kts | 351° |
| 2026-05-07 03:42 | 46.73630 | 8.96506 | 30611 ft | 488 kts | 351° |
| 2026-05-07 03:43 | 46.77032 | 8.96032 | 31221 ft | 487 kts | 352° |
| 2026-05-07 03:43 | 46.80402 | 8.95574 | 31760 ft | 487 kts | 352° |
| 2026-05-07 03:43 | 46.83793 | 8.95120 | 32021 ft | 489 kts | 352° |
| 2026-05-07 03:44 | 46.90555 | 8.94207 | 32000 ft | 490 kts | 352° |
| 2026-05-07 03:44 | 46.97372 | 8.93277 | 32002 ft | 490 kts | 352° |
| 2026-05-07 03:45 | 47.04137 | 8.92349 | 32017 ft | 490 kts | 352° |
| 2026-05-07 03:45 | 47.10959 | 8.91408 | 32008 ft | 487 kts | 352° |
| 2026-05-07 03:46 | 47.17671 | 8.90484 | 32010 ft | 487 kts | 352° |
| 2026-05-07 03:46 | 47.24443 | 8.89548 | 32010 ft | 487 kts | 352° |
| 2026-05-07 03:47 | 47.31205 | 8.89116 | 32016 ft | 491 kts | 358° |
| 2026-05-07 03:47 | 47.34676 | 8.89269 | 32005 ft | 504 kts | 0° |
| 2026-05-07 03:47 | 47.38219 | 8.89515 | 31996 ft | 512 kts | 1° |
| 2026-05-07 03:48 | 47.45350 | 8.90067 | 31998 ft | 515 kts | 1° |
| 2026-05-07 03:48 | 47.52528 | 8.90607 | 31998 ft | 514 kts | 1° |
| 2026-05-07 03:49 | 47.59654 | 8.91135 | 31992 ft | 514 kts | 1° |
| 2026-05-07 03:49 | 47.66810 | 8.91660 | 31995 ft | 514 kts | 1° |
| 2026-05-07 03:50 | 47.73713 | 8.92160 | 31984 ft | 513 kts | 1° |
| 2026-05-07 03:50 | 47.80826 | 8.92684 | 31978 ft | 512 kts | 1° |
| 2026-05-07 03:51 | 47.87995 | 8.93213 | 31980 ft | 512 kts | 1° |
| 2026-05-07 03:51 | 47.95113 | 8.93736 | 31977 ft | 513 kts | 1° |
| 2026-05-07 03:52 | 48.02219 | 8.94257 | 31977 ft | 501 kts | 2° |
| 2026-05-07 03:52 | 48.05668 | 8.94515 | 31929 ft | 484 kts | 2° |
| 2026-05-07 03:52 | 48.08977 | 8.94764 | 31956 ft | 480 kts | 2° |
| 2026-05-07 03:53 | 48.15633 | 8.95258 | 31638 ft | 475 kts | 3° |
| 2026-05-07 03:53 | 48.18929 | 8.95653 | 31386 ft | 471 kts | 5° |
| 2026-05-07 03:53 | 48.22155 | 8.96126 | 31129 ft | 467 kts | 5° |
| 2026-05-07 03:53 | 48.25378 | 8.96623 | 30879 ft | 463 kts | 5° |
| 2026-05-07 03:54 | 48.28611 | 8.97124 | 30635 ft | 460 kts | 5° |
| 2026-05-07 03:54 | 48.31797 | 8.97613 | 30379 ft | 458 kts | 6° |
| 2026-05-07 03:54 | 48.34925 | 8.98090 | 30142 ft | 456 kts | 6° |
| 2026-05-07 03:54 | 48.38115 | 8.98578 | 29882 ft | 454 kts | 6° |
| 2026-05-07 03:55 | 48.41257 | 8.99061 | 29575 ft | 454 kts | 6° |
| 2026-05-07 03:55 | 48.44418 | 8.99545 | 29287 ft | 454 kts | 6° |
| 2026-05-07 03:55 | 48.47563 | 9.00026 | 28992 ft | 455 kts | 6° |
| 2026-05-07 03:55 | 48.50720 | 9.00508 | 28584 ft | 456 kts | 6° |
| 2026-05-07 03:56 | 48.53890 | 9.00992 | 28053 ft | 457 kts | 6° |
| 2026-05-07 03:56 | 48.57018 | 9.01471 | 27440 ft | 457 kts | 6° |
| 2026-05-07 03:56 | 48.60219 | 9.01962 | 26946 ft | 452 kts | 6° |
| 2026-05-07 03:56 | 48.63373 | 9.02509 | 26554 ft | 450 kts | 7° |
| 2026-05-07 03:57 | 48.66476 | 9.03202 | 26095 ft | 447 kts | 8° |
| 2026-05-07 03:57 | 48.69547 | 9.03936 | 25646 ft | 443 kts | 9° |
| 2026-05-07 03:57 | 48.72551 | 9.04663 | 25219 ft | 440 kts | 9° |
| 2026-05-07 03:57 | 48.75569 | 9.05389 | 24785 ft | 436 kts | 9° |
| 2026-05-07 03:58 | 48.78569 | 9.06112 | 24363 ft | 433 kts | 9° |
| 2026-05-07 03:58 | 48.81602 | 9.06841 | 23935 ft | 429 kts | 9° |
| 2026-05-07 03:58 | 48.84529 | 9.07544 | 23504 ft | 426 kts | 8° |
| 2026-05-07 03:58 | 48.87455 | 9.08233 | 23024 ft | 422 kts | 8° |
| 2026-05-07 03:59 | 48.90369 | 9.08750 | 22562 ft | 418 kts | 5° |
| 2026-05-07 03:59 | 48.93268 | 9.09171 | 22128 ft | 414 kts | 5° |
| 2026-05-07 03:59 | 48.96087 | 9.09560 | 21691 ft | 410 kts | 5° |
| 2026-05-07 03:59 | 48.98762 | 9.09931 | 21277 ft | 406 kts | 5° |
| 2026-05-07 04:00 | 49.01569 | 9.10327 | 20835 ft | 404 kts | 5° |
| 2026-05-07 04:00 | 49.04368 | 9.10725 | 20302 ft | 403 kts | 4° |
| 2026-05-07 04:00 | 49.07162 | 9.11123 | 19777 ft | 402 kts | 4° |
| 2026-05-07 04:00 | 49.09933 | 9.11517 | 19280 ft | 400 kts | 4° |
| 2026-05-07 04:01 | 49.12719 | 9.11915 | 18781 ft | 399 kts | 4° |
| 2026-05-07 04:01 | 49.15508 | 9.12314 | 18281 ft | 398 kts | 4° |
| 2026-05-07 04:01 | 49.18229 | 9.12702 | 17734 ft | 397 kts | 4° |
| 2026-05-07 04:01 | 49.20971 | 9.13094 | 17221 ft | 394 kts | 4° |
| 2026-05-07 04:02 | 49.23692 | 9.13485 | 16731 ft | 391 kts | 4° |
| 2026-05-07 04:02 | 49.26402 | 9.13889 | 16226 ft | 389 kts | 5° |
| 2026-05-07 04:02 | 49.29070 | 9.14480 | 15736 ft | 387 kts | 8° |
| 2026-05-07 04:02 | 49.31716 | 9.15311 | 15192 ft | 387 kts | 11° |
| 2026-05-07 04:03 | 49.34356 | 9.16238 | 14690 ft | 385 kts | 12° |
| 2026-05-07 04:03 | 49.36949 | 9.17168 | 14176 ft | 383 kts | 12° |
| 2026-05-07 04:03 | 49.39555 | 9.18102 | 13660 ft | 382 kts | 12° |
| 2026-05-07 04:03 | 49.42136 | 9.19024 | 13087 ft | 379 kts | 11° |
| 2026-05-07 04:04 | 49.44708 | 9.19943 | 12550 ft | 376 kts | 11° |
| 2026-05-07 04:04 | 49.47219 | 9.20838 | 12032 ft | 373 kts | 11° |
| 2026-05-07 04:04 | 49.49690 | 9.21719 | 11512 ft | 370 kts | 11° |
| 2026-05-07 04:04 | 49.51427 | 9.22338 | 11142 ft | 369 kts | 11° |
| 2026-05-07 04:05 | 49.54749 | 9.23523 | 10633 ft | 363 kts | 11° |
| 2026-05-07 04:05 | 49.57154 | 9.24382 | 10669 ft | 346 kts | 11° |
| 2026-05-07 04:05 | 49.59467 | 9.25211 | 10675 ft | 329 kts | 11° |
| 2026-05-07 04:05 | 49.60925 | 9.25732 | 10681 ft | 317 kts | 11° |
| 2026-05-07 04:06 | 49.63019 | 9.26480 | 10691 ft | 300 kts | 11° |
| 2026-05-07 04:06 | 49.65024 | 9.27200 | 10689 ft | 292 kts | 10° |
| 2026-05-07 04:06 | 49.66989 | 9.27901 | 10558 ft | 292 kts | 11° |
| 2026-05-07 04:06 | 49.68982 | 9.28614 | 10105 ft | 295 kts | 10° |
| 2026-05-07 04:07 | 49.70991 | 9.29335 | 9736 ft | 293 kts | 10° |
| 2026-05-07 04:07 | 49.72958 | 9.30043 | 9738 ft | 288 kts | 10° |
| 2026-05-07 04:07 | 49.74919 | 9.30747 | 9760 ft | 288 kts | 10° |
| 2026-05-07 04:07 | 49.76859 | 9.31445 | 9796 ft | 289 kts | 10° |
| 2026-05-07 04:08 | 49.78817 | 9.32149 | 9809 ft | 288 kts | 10° |
| 2026-05-07 04:08 | 49.80787 | 9.32859 | 9830 ft | 288 kts | 10° |
| 2026-05-07 04:08 | 49.82726 | 9.33556 | 9876 ft | 288 kts | 11° |
| 2026-05-07 04:08 | 49.84705 | 9.34267 | 9894 ft | 289 kts | 11° |
| 2026-05-07 04:09 | 49.86666 | 9.34981 | 9901 ft | 289 kts | 11° |
| 2026-05-07 04:09 | 49.88623 | 9.35722 | 9903 ft | 289 kts | 12° |
| 2026-05-07 04:09 | 49.90557 | 9.36465 | 9903 ft | 289 kts | 12° |
| 2026-05-07 04:09 | 49.92519 | 9.37221 | 9906 ft | 289 kts | 12° |
| 2026-05-07 04:10 | 49.94473 | 9.37972 | 9908 ft | 289 kts | 12° |
| 2026-05-07 04:10 | 49.96429 | 9.38723 | 9905 ft | 289 kts | 12° |
| 2026-05-07 04:10 | 49.98388 | 9.39475 | 9906 ft | 289 kts | 12° |
| 2026-05-07 04:10 | 50.00331 | 9.40222 | 9900 ft | 289 kts | 12° |
| 2026-05-07 04:11 | 50.02298 | 9.40978 | 9905 ft | 289 kts | 12° |
| 2026-05-07 04:11 | 50.04255 | 9.41730 | 9910 ft | 289 kts | 12° |
| 2026-05-07 04:11 | 50.06214 | 9.42481 | 9906 ft | 288 kts | 12° |
| 2026-05-07 04:11 | 50.08143 | 9.43226 | 9902 ft | 288 kts | 12° |
| 2026-05-07 04:12 | 50.10085 | 9.43975 | 9901 ft | 287 kts | 12° |
| 2026-05-07 04:12 | 50.12030 | 9.44727 | 9901 ft | 287 kts | 12° |
| 2026-05-07 04:12 | 50.13959 | 9.45467 | 9898 ft | 287 kts | 10° |
| 2026-05-07 04:12 | 50.15937 | 9.45672 | 9879 ft | 285 kts | 353° |
| 2026-05-07 04:13 | 50.17868 | 9.44972 | 9599 ft | 285 kts | 340° |
| 2026-05-07 04:13 | 50.19747 | 9.43914 | 9212 ft | 283 kts | 337° |
| 2026-05-07 04:13 | 50.21379 | 9.42277 | 8808 ft | 279 kts | 310° |
| 2026-05-07 04:13 | 50.22294 | 9.39646 | 8479 ft | 274 kts | 283° |
| 2026-05-07 04:14 | 50.22331 | 9.36730 | 8157 ft | 272 kts | 257° |
| 2026-05-07 04:14 | 50.21726 | 9.33935 | 7857 ft | 269 kts | 250° |
| 2026-05-07 04:14 | 50.21064 | 9.31194 | 7553 ft | 267 kts | 250° |
| 2026-05-07 04:14 | 50.20415 | 9.28479 | 7248 ft | 265 kts | 251° |
| 2026-05-07 04:15 | 50.19779 | 9.25780 | 6945 ft | 264 kts | 251° |
| 2026-05-07 04:15 | 50.19161 | 9.23116 | 6654 ft | 262 kts | 253° |
| 2026-05-07 04:15 | 50.18625 | 9.20401 | 6376 ft | 260 kts | 254° |
| 2026-05-07 04:15 | 50.18098 | 9.17715 | 6070 ft | 259 kts | 254° |
| 2026-05-07 04:16 | 50.17539 | 9.15031 | 5772 ft | 258 kts | 253° |
| 2026-05-07 04:16 | 50.16955 | 9.12386 | 5463 ft | 255 kts | 251° |
| 2026-05-07 04:16 | 50.16359 | 9.09808 | 5183 ft | 254 kts | 251° |
| 2026-05-07 04:16 | 50.15736 | 9.07187 | 4906 ft | 253 kts | 250° |
| 2026-05-07 04:17 | 50.15112 | 9.04617 | 4621 ft | 253 kts | 251° |
| 2026-05-07 04:17 | 50.14487 | 9.02059 | 4339 ft | 252 kts | 251° |
| 2026-05-07 04:17 | 50.13863 | 8.99515 | 4111 ft | 247 kts | 251° |
| 2026-05-07 04:17 | 50.13260 | 8.97070 | 4069 ft | 236 kts | 251° |
| 2026-05-07 04:18 | 50.12695 | 8.94767 | 4018 ft | 225 kts | 251° |
| 2026-05-07 04:18 | 50.12136 | 8.92481 | 4017 ft | 226 kts | 252° |
| 2026-05-07 04:18 | 50.11573 | 8.90167 | 4014 ft | 228 kts | 252° |
| 2026-05-07 04:18 | 50.11018 | 8.87878 | 4025 ft | 218 kts | 251° |
| 2026-05-07 04:19 | 50.10509 | 8.85782 | 4031 ft | 201 kts | 252° |
| 2026-05-07 04:19 | 50.10022 | 8.83774 | 3853 ft | 194 kts | 252° |
| 2026-05-07 04:19 | 50.09557 | 8.81842 | 3593 ft | 188 kts | 252° |
| 2026-05-07 04:19 | 50.09103 | 8.79955 | 3319 ft | 181 kts | 252° |
| 2026-05-07 04:20 | 50.08672 | 8.78164 | 3053 ft | 170 kts | 253° |
| 2026-05-07 04:20 | 50.08275 | 8.76520 | 2824 ft | 157 kts | 253° |
| 2026-05-07 04:20 | 50.07904 | 8.74970 | 2607 ft | 150 kts | 253° |
| 2026-05-07 04:21 | 50.07173 | 8.71914 | 2234 ft | 149 kts | 253° |
| 2026-05-07 04:21 | 50.06811 | 8.70404 | 2046 ft | 148 kts | 253° |
| 2026-05-07 04:21 | 50.06454 | 8.68914 | 1849 ft | 148 kts | 254° |
| 2026-05-07 04:21 | 50.06095 | 8.67413 | 1647 ft | 147 kts | 253° |
| 2026-05-07 04:22 | 50.05737 | 8.65915 | 1430 ft | 147 kts | 253° |
| 2026-05-07 04:22 | 50.05380 | 8.64416 | 1205 ft | 147 kts | 252° |
| 2026-05-07 04:22 | 50.05023 | 8.62930 | 1000 ft | 145 kts | 253° |
| 2026-05-07 04:22 | 50.04675 | 8.61471 | 793 ft | 144 kts | 252° |
| 2026-05-07 04:23 | 50.04329 | 8.60018 | 601 ft | 143 kts | 252° |
| 2026-05-07 04:23 | 50.03986 | 8.58583 | 406 ft | 142 kts | 252° |
| 2026-05-07 04:23 | 50.03685 | 8.57305 | 367 ft | 95 kts | 249° |
| 2026-05-07 04:23 | 50.03547 | 8.56730 | 364 ft | 18 kts | 249° |
| 2026-05-07 04:24 | 50.03501 | 8.56537 | 363 ft | 20 kts | 249° |
| 2026-05-07 04:24 | 50.03448 | 8.56312 | 362 ft | 23 kts | 252° |
| 2026-05-07 04:24 | 50.03441 | 8.56055 | 359 ft | 24 kts | 275° |
| 2026-05-07 04:24 | 50.03468 | 8.55791 | 358 ft | 25 kts | 281° |
| 2026-05-07 04:25 | 50.03495 | 8.55516 | 360 ft | 26 kts | 265° |
| 2026-05-07 04:25 | 50.03432 | 8.55233 | 361 ft | 29 kts | 248° |
| 2026-05-07 04:25 | 50.03403 | 8.54968 | 356 ft | 23 kts | 287° |
| 2026-05-07 04:25 | 50.03524 | 8.54804 | 359 ft | 24 kts | 338° |
| 2026-05-07 04:26 | 50.03690 | 8.54711 | 357 ft | 26 kts | 345° |
| 2026-05-07 04:26 | 50.03789 | 8.54860 | 360 ft | 22 kts | 68° |
| 2026-05-07 04:26 | 50.03856 | 8.55015 | 365 ft | 15 kts | 22° |
| 2026-05-07 04:26 | 50.03960 | 8.54975 | 368 ft | 15 kts | 324° |
| 2026-05-07 04:27 | 50.03974 | 8.54820 | 367 ft | 17 kts | 236° |
| 2026-05-07 04:27 | 50.03885 | 8.54775 | 365 ft | 4 kts | 144° |
| 2026-05-07 04:27 | 50.03884 | 8.54776 | 365 ft | 1 kts | 149° |
| 2026-05-07 04:27 | 50.03880 | 8.54778 | 364 ft | 0 kts | 159° |